»·PEaware :: N208GG KSNA-KSNA

N208GG :: KSNA-KSNA

FLIGHT INFORMATION

Flight Status: Arrived
Operator: Privately registered:
United States
More flights under this callsign
Pilot: Hunter M. (19355)
Aircraft: CESSNA 172 SKYHAWK
(C172)
More flights by this aircraft type
Origin: KSNA John Wayne-Orange Co
United States
Destination: KSNA John Wayne-Orange Co
United States
More flights between these airports :: More routes between these airports
Route: SLI
File this flight plan on PilotEdge
Remarks: practice approaches
Altitude:
(Current/Filed)
3,000ft
Speed:
(Current/Filed)
118kts
Departed: 26-Nov-19 03:40 PM
Arrived: 26-Nov-19 04:06 PM
Distance/Time
Traveled:
0nm/0:26
Distance/Time
To Go:
Arrived

Flight Plot

Page will automatically refresh every two minutes.


Map Options




Map Legend


Flown Route
Filed Route
Departure Airport
Arrival Airport
Navaid (VOR, NDB)
Fix

Horizontal Profiles

Position Reports

Time Latitude Longitude Heading Altitude Ground
Speed
26-Nov-19 15:20 33.667443 -117.870774 37 59ft 0kts
26-Nov-19 15:21 33.667443 -117.870774 37 59ft 0kts
26-Nov-19 15:22 33.667443 -117.870774 37 59ft 0kts
26-Nov-19 15:23 33.667443 -117.870774 37 59ft 0kts
26-Nov-19 15:24 33.667443 -117.870774 37 59ft 0kts
26-Nov-19 15:25 33.667443 -117.870774 37 59ft 0kts
26-Nov-19 15:26 33.667443 -117.870774 37 59ft 0kts
26-Nov-19 15:27 33.667443 -117.870774 37 59ft 0kts
26-Nov-19 15:27 33.667443 -117.870774 37 59ft 0kts
26-Nov-19 15:29 33.667443 -117.870774 37 59ft 0kts
26-Nov-19 15:30 33.667444 -117.870772 37 59ft 0kts
26-Nov-19 15:30 33.668569 -117.871274 26 59ft 11kts
26-Nov-19 15:32 33.670353 -117.870046 33 59ft 5kts
26-Nov-19 15:33 33.672458 -117.867997 32 59ft 10kts
26-Nov-19 15:33 33.673422 -117.867428 15 59ft 7kts
26-Nov-19 15:35 33.679463 -117.863820 25 59ft 0kts
26-Nov-19 15:35 33.679463 -117.863819 25 59ft 0kts
26-Nov-19 15:36 33.679619 -117.863805 345 59ft 0kts
26-Nov-19 15:37 33.679621 -117.863806 345 59ft 0kts
26-Nov-19 15:39 33.678771 -117.865012 207 59ft 34kts
26-Nov-19 15:39 33.664581 -117.876067 221 517ft 84kts
26-Nov-19 15:40 33.649259 -117.898166 231 1339ft 90kts
26-Nov-19 15:41 33.633294 -117.922500 231 2058ft 93kts
26-Nov-19 15:42 33.646471 -117.932225 11 2777ft 89kts
26-Nov-19 15:43 33.673879 -117.925359 11 3022ft 115kts
26-Nov-19 15:44 33.704420 -117.917722 11 2989ft 104kts
26-Nov-19 15:45 33.732513 -117.910698 11 3005ft 104kts
26-Nov-19 15:46 33.761524 -117.903417 11 3000ft 107kts
26-Nov-19 15:47 33.790535 -117.895157 31 2999ft 107kts
26-Nov-19 15:48 33.815394 -117.875311 33 2999ft 107kts
26-Nov-19 15:49 33.840131 -117.855406 33 2999ft 107kts
26-Nov-19 15:50 33.865013 -117.835378 33 3000ft 107kts
26-Nov-19 15:51 33.889784 -117.815434 33 3000ft 107kts
26-Nov-19 15:52 33.910820 -117.792496 101 2993ft 106kts
26-Nov-19 15:53 33.900742 -117.760359 108 2958ft 99kts
26-Nov-19 15:54 33.879406 -117.749199 184 2993ft 95kts
26-Nov-19 15:55 33.854117 -117.757224 213 3016ft 94kts
26-Nov-19 15:56 33.832815 -117.771222 200 2938ft 79kts
26-Nov-19 15:57 33.813214 -117.780150 203 2900ft 72kts
26-Nov-19 15:58 33.795598 -117.792102 208 2720ft 73kts
26-Nov-19 15:59 33.777871 -117.803957 207 2362ft 72kts
26-Nov-19 16:00 33.759971 -117.815205 209 1850ft 72kts
26-Nov-19 16:01 33.742238 -117.826278 211 1365ft 71kts
26-Nov-19 16:02 33.725251 -117.837270 207 1048ft 67kts
26-Nov-19 16:03 33.707880 -117.848046 209 666ft 70kts
26-Nov-19 16:04 33.690815 -117.859164 208 310ft 70kts
26-Nov-19 16:05 33.675970 -117.868632 208 59ft 16kts
26-Nov-19 16:06 33.675714 -117.869626 297 59ft 0kts
26-Nov-19 16:07 33.676871 -117.872323 291 59ft 0kts
26-Nov-19 16:08 33.676871 -117.872323 291 59ft 0kts

Navigation Log

Ident Type
Flight plan parsing failed, navigation log unavailable